createdAt,value
2023-05-08T00:00:41.990Z,496.00
2023-05-08T00:01:42.036Z,495.00
2023-05-08T00:02:42.126Z,494.00
2023-05-08T00:03:42.269Z,494.00
2023-05-08T00:04:42.196Z,495.00
2023-05-08T00:05:42.175Z,495.00
2023-05-08T00:06:42.421Z,494.00
2023-05-08T00:07:42.255Z,495.00
2023-05-08T00:08:42.302Z,497.00
2023-05-08T00:09:42.324Z,500.00
2023-05-08T00:10:42.396Z,501.00
2023-05-08T00:11:42.470Z,502.00
2023-05-08T00:12:42.467Z,503.00
2023-05-08T00:13:42.481Z,503.00
2023-05-08T00:14:42.533Z,503.00
2023-05-08T00:15:42.572Z,502.00
2023-05-08T00:16:43.002Z,501.00
2023-05-08T00:17:42.682Z,501.00
2023-05-08T00:18:42.688Z,502.00
2023-05-08T00:19:42.747Z,502.00
2023-05-08T00:20:42.783Z,502.00
2023-05-08T00:21:42.822Z,501.00
2023-05-08T00:22:42.893Z,499.00
2023-05-08T00:23:42.911Z,497.00
2023-05-08T00:24:42.974Z,498.00
2023-05-08T00:25:43.036Z,499.00
2023-05-08T00:26:43.440Z,500.00
2023-05-08T00:27:43.129Z,501.00
2023-05-08T00:28:43.147Z,499.00
2023-05-08T00:29:43.178Z,499.00
2023-05-08T00:30:43.271Z,501.00
2023-05-08T00:31:43.312Z,502.00
2023-05-08T00:32:43.381Z,501.00
2023-05-08T00:33:43.375Z,502.00
2023-05-08T00:34:43.424Z,503.00
2023-05-08T00:35:43.475Z,502.00
2023-05-08T00:36:43.533Z,501.00
2023-05-08T00:37:43.569Z,502.00
2023-05-08T00:38:43.745Z,504.00
2023-05-08T00:39:43.671Z,503.00
2023-05-08T00:40:43.695Z,502.00
2023-05-08T00:41:43.757Z,501.00
2023-05-08T00:42:43.783Z,501.00
2023-05-08T00:43:43.828Z,500.00
2023-05-08T00:44:43.867Z,501.00
2023-05-08T00:45:43.907Z,501.00
2023-05-08T00:46:44.556Z,498.00
2023-05-08T00:47:44.059Z,498.00
2023-05-08T00:48:44.074Z,498.00
2023-05-08T00:49:44.068Z,500.00
2023-05-08T00:50:44.114Z,500.00
2023-05-08T00:51:44.158Z,499.00
2023-05-08T00:52:44.183Z,497.00
2023-05-08T00:53:44.225Z,496.00
2023-05-08T00:54:44.287Z,496.00
2023-05-08T00:55:44.345Z,496.00
2023-05-08T00:56:44.349Z,499.00
2023-05-08T00:57:44.404Z,500.00
2023-05-08T00:58:44.460Z,500.00
2023-05-08T00:59:44.472Z,502.00
2023-05-08T01:00:44.510Z,501.00
2023-05-08T01:01:44.634Z,500.00
2023-05-08T01:02:44.666Z,501.00
2023-05-08T01:03:44.805Z,501.00
2023-05-08T01:04:44.691Z,502.00
2023-05-08T01:05:44.760Z,503.00
2023-05-08T01:06:44.793Z,504.00
2023-05-08T01:07:44.814Z,507.00
2023-05-08T01:08:44.910Z,506.00
2023-05-08T01:09:44.928Z,507.00
2023-05-08T01:10:44.940Z,510.00
2023-05-08T01:11:45.457Z,511.00
2023-05-08T01:12:45.079Z,513.00
2023-05-08T01:13:45.120Z,514.00
2023-05-08T01:14:45.144Z,513.00
2023-05-08T01:15:45.194Z,512.00
2023-05-08T01:16:45.280Z,514.00
2023-05-08T01:17:45.281Z,512.00
2023-05-08T01:18:45.292Z,511.00
2023-05-08T01:19:45.357Z,511.00
2023-05-08T01:20:45.373Z,507.00
2023-05-08T01:21:45.455Z,506.00
2023-05-08T01:22:45.514Z,506.00
2023-05-08T01:23:45.509Z,507.00
2023-05-08T01:24:45.584Z,507.00
2023-05-08T01:25:45.621Z,507.00
2023-05-08T01:26:45.692Z,507.00
2023-05-08T01:27:45.709Z,509.00
2023-05-08T01:28:45.752Z,511.00
2023-05-08T01:29:45.784Z,511.00
2023-05-08T01:30:45.831Z,511.00
2023-05-08T01:31:45.860Z,511.00
2023-05-08T01:32:45.947Z,512.00
2023-05-08T01:33:46.048Z,510.00
2023-05-08T01:34:46.012Z,510.00
2023-05-08T01:35:46.043Z,512.00
2023-05-08T01:36:46.122Z,512.00
2023-05-08T01:37:46.145Z,511.00
2023-05-08T01:38:46.193Z,511.00
2023-05-08T01:39:46.232Z,509.00
2023-05-08T01:40:46.257Z,508.00
2023-05-08T01:41:46.312Z,510.00
2023-05-08T01:42:46.406Z,512.00
2023-05-08T01:43:46.430Z,514.00
2023-05-08T01:44:46.458Z,513.00
2023-05-08T01:45:46.522Z,513.00
2023-05-08T01:46:46.627Z,512.00
2023-05-08T01:47:46.636Z,512.00
2023-05-08T01:48:46.624Z,513.00
2023-05-08T01:49:46.683Z,512.00
2023-05-08T01:50:46.700Z,512.00
2023-05-08T01:51:46.770Z,510.00
2023-05-08T01:52:46.794Z,511.00
2023-05-08T01:53:46.872Z,509.00
2023-05-08T01:54:46.912Z,510.00
2023-05-08T01:55:46.958Z,510.00
2023-05-08T01:56:47.015Z,509.00
2023-05-08T01:57:47.062Z,507.00
2023-05-08T01:58:47.098Z,508.00
2023-05-08T01:59:47.130Z,506.00
2023-05-08T02:00:47.186Z,505.00
2023-05-08T02:01:47.279Z,507.00
2023-05-08T02:02:47.423Z,509.00
2023-05-08T02:03:47.361Z,508.00
2023-05-08T02:04:47.347Z,509.00
2023-05-08T02:05:47.427Z,509.00
2023-05-08T02:06:47.447Z,511.00
2023-05-08T02:07:47.468Z,510.00
2023-05-08T02:08:47.519Z,511.00
2023-05-08T02:09:47.586Z,512.00
2023-05-08T02:10:47.617Z,512.00
2023-05-08T02:11:47.692Z,510.00
2023-05-08T02:12:47.766Z,509.00
2023-05-08T02:13:47.847Z,510.00
2023-05-08T02:14:47.887Z,509.00
2023-05-08T02:15:47.886Z,507.00
2023-05-08T02:16:47.959Z,506.00
2023-05-08T02:17:48.009Z,503.00
2023-05-08T02:18:48.021Z,502.00
2023-05-08T02:19:48.081Z,500.00
2023-05-08T02:20:48.121Z,499.00
2023-05-08T02:21:48.166Z,496.00
2023-05-08T02:22:48.235Z,495.00
2023-05-08T02:23:48.244Z,494.00
2023-05-08T02:24:48.305Z,494.00
2023-05-08T02:25:48.374Z,495.00
2023-05-08T02:26:48.411Z,495.00
2023-05-08T02:27:48.464Z,497.00
2023-05-08T02:28:48.523Z,497.00
2023-05-08T02:29:48.556Z,497.00
2023-05-08T02:30:48.605Z,496.00
2023-05-08T02:31:48.706Z,495.00
2023-05-08T02:32:48.811Z,495.00
2023-05-08T02:33:48.711Z,496.00
2023-05-08T02:35:02.020Z,496.00
2023-05-08T02:35:49.797Z,496.00
2023-05-08T02:36:48.775Z,495.00
2023-05-08T02:37:48.797Z,495.00
2023-05-08T02:38:48.749Z,493.00
2023-05-08T02:39:48.767Z,495.00
2023-05-08T02:40:48.748Z,496.00
2023-05-08T02:41:48.781Z,496.00
2023-05-08T02:42:48.734Z,497.00
2023-05-08T02:43:48.752Z,494.00
2023-05-08T02:44:48.797Z,493.00
2023-05-08T02:45:48.843Z,494.00
2023-05-08T02:46:49.017Z,492.00
2023-05-08T02:47:49.004Z,492.00
2023-05-08T02:48:49.006Z,489.00
2023-05-08T02:49:49.065Z,491.00
2023-05-08T02:50:49.094Z,493.00
2023-05-08T02:51:49.159Z,493.00
2023-05-08T02:52:49.211Z,495.00
2023-05-08T02:53:49.273Z,494.00
2023-05-08T02:54:49.300Z,493.00
2023-05-08T02:55:49.385Z,495.00
2023-05-08T02:56:49.419Z,496.00
2023-05-08T02:57:49.453Z,497.00
2023-05-08T02:58:49.498Z,495.00
2023-05-08T02:59:49.553Z,496.00
2023-05-08T03:00:49.631Z,497.00
2023-05-08T03:01:49.779Z,498.00
2023-05-08T03:02:49.884Z,498.00
2023-05-08T03:03:49.913Z,498.00
2023-05-08T03:04:50.466Z,497.00
2023-05-08T03:05:49.873Z,496.00
2023-05-08T03:06:49.923Z,496.00
2023-05-08T03:07:49.947Z,497.00
2023-05-08T03:08:50.043Z,498.00
2023-05-08T03:09:50.049Z,496.00
2023-05-08T03:10:50.141Z,496.00
2023-05-08T03:11:50.159Z,496.00
2023-05-08T03:12:50.266Z,495.00
2023-05-08T03:13:50.267Z,495.00
2023-05-08T03:14:50.307Z,495.00
2023-05-08T03:15:50.381Z,493.00
2023-05-08T03:16:50.406Z,494.00
2023-05-08T03:17:50.512Z,497.00
2023-05-08T03:18:50.462Z,497.00
2023-05-08T03:19:50.547Z,497.00
2023-05-08T03:20:50.593Z,497.00
2023-05-08T03:21:50.990Z,500.00
2023-05-08T03:22:50.692Z,501.00
2023-05-08T03:23:50.721Z,501.00
2023-05-08T03:24:50.749Z,500.00
2023-05-08T03:25:50.818Z,498.00
2023-05-08T03:26:50.888Z,494.00
2023-05-08T03:27:50.928Z,493.00
2023-05-08T03:28:50.976Z,491.00
2023-05-08T03:29:51.029Z,491.00
2023-05-08T03:30:51.059Z,492.00
2023-05-08T03:31:51.531Z,495.00
2023-05-08T03:32:51.228Z,492.00
2023-05-08T03:33:51.235Z,490.00
2023-05-08T03:34:51.297Z,492.00
2023-05-08T03:35:51.307Z,494.00
2023-05-08T03:36:51.346Z,496.00
2023-05-08T03:37:51.382Z,496.00
2023-05-08T03:38:51.458Z,495.00
2023-05-08T03:39:51.462Z,495.00
2023-05-08T03:40:51.537Z,497.00
2023-05-08T03:41:52.010Z,496.00
2023-05-08T03:42:51.612Z,496.00
2023-05-08T03:43:51.656Z,494.00
2023-05-08T03:44:51.768Z,493.00
2023-05-08T03:45:51.738Z,493.00
2023-05-08T03:46:51.792Z,495.00
2023-05-08T03:47:51.878Z,496.00
2023-05-08T03:48:51.886Z,496.00
2023-05-08T03:49:51.946Z,497.00
2023-05-08T03:50:52.019Z,498.00
2023-05-08T03:51:52.523Z,498.00
2023-05-08T03:52:52.108Z,496.00
2023-05-08T03:53:52.155Z,494.00
2023-05-08T03:54:52.203Z,491.00
2023-05-08T03:55:52.257Z,489.00
2023-05-08T03:56:52.316Z,487.00
2023-05-08T03:57:52.371Z,488.00
2023-05-08T03:58:52.420Z,487.00
2023-05-08T03:59:52.492Z,488.00
2023-05-08T04:00:52.512Z,487.00
2023-05-08T04:01:52.661Z,486.00
2023-05-08T04:02:52.744Z,489.00
2023-05-08T04:03:52.767Z,490.00
2023-05-08T04:04:52.727Z,493.00
2023-05-08T04:05:52.782Z,494.00
2023-05-08T04:06:52.819Z,496.00
2023-05-08T04:07:52.892Z,497.00
2023-05-08T04:08:52.973Z,496.00
2023-05-08T04:09:52.964Z,496.00
2023-05-08T04:10:53.033Z,495.00
2023-05-08T04:11:53.097Z,495.00
2023-05-08T04:12:53.248Z,494.00
2023-05-08T04:13:53.195Z,494.00
2023-05-08T04:14:55.693Z,495.00
2023-05-08T04:15:53.263Z,498.00
2023-05-08T04:16:53.348Z,498.00
2023-05-08T04:17:53.332Z,499.00
2023-05-08T04:18:53.245Z,499.00
2023-05-08T04:19:53.200Z,498.00
2023-05-08T04:20:53.191Z,498.00
2023-05-08T04:21:53.194Z,497.00
2023-05-08T04:22:53.172Z,497.00
2023-05-08T04:23:53.170Z,499.00
2023-05-08T04:24:53.184Z,498.00
2023-05-08T04:25:53.135Z,499.00
2023-05-08T04:26:53.172Z,499.00
2023-05-08T04:27:53.183Z,500.00
2023-05-08T04:28:53.225Z,501.00
2023-05-08T04:29:53.122Z,502.00
2023-05-08T04:30:53.117Z,503.00
2023-05-08T04:31:53.291Z,505.00
2023-05-08T04:32:53.084Z,505.00
2023-05-08T04:33:53.097Z,505.00
2023-05-08T04:34:53.112Z,504.00
2023-05-08T04:35:53.089Z,500.00
2023-05-08T04:36:53.050Z,500.00
2023-05-08T04:37:53.085Z,499.00
2023-05-08T04:38:53.072Z,497.00
2023-05-08T04:39:53.039Z,501.00
2023-05-08T04:40:53.042Z,502.00
2023-05-08T04:41:53.079Z,503.00
2023-05-08T04:42:53.114Z,502.00
2023-05-08T04:43:52.999Z,503.00
2023-05-08T04:44:53.022Z,504.00
2023-05-08T04:45:53.030Z,504.00
2023-05-08T04:46:52.987Z,504.00
2023-05-08T04:47:53.039Z,506.00
2023-05-08T04:48:52.969Z,505.00
2023-05-08T04:49:52.978Z,504.00
2023-05-08T04:50:52.978Z,504.00
2023-05-08T04:51:53.003Z,503.00
2023-05-08T04:52:53.036Z,502.00
2023-05-08T04:53:53.101Z,502.00
2023-05-08T04:54:53.156Z,501.00
2023-05-08T04:55:53.202Z,502.00
2023-05-08T04:56:53.243Z,500.00
2023-05-08T04:57:53.549Z,502.00
2023-05-08T04:58:53.322Z,500.00
2023-05-08T04:59:53.403Z,499.00
2023-05-08T05:00:53.455Z,496.00
2023-05-08T05:01:53.533Z,497.00
2023-05-08T05:02:53.594Z,496.00
2023-05-08T05:03:53.624Z,495.00
2023-05-08T05:04:53.618Z,494.00
2023-05-08T05:05:53.613Z,493.00
2023-05-08T05:06:53.639Z,491.00
2023-05-08T05:07:53.650Z,491.00
2023-05-08T05:08:53.658Z,493.00
2023-05-08T05:09:53.699Z,496.00
2023-05-08T05:10:53.732Z,501.00
2023-05-08T05:11:53.741Z,503.00
2023-05-08T05:12:53.810Z,506.00
2023-05-08T05:13:53.771Z,504.00
2023-05-08T05:14:53.833Z,502.00
2023-05-08T05:15:53.840Z,502.00
2023-05-08T05:16:53.863Z,502.00
2023-05-08T05:17:53.866Z,502.00
2023-05-08T05:18:53.823Z,504.00
2023-05-08T05:19:53.860Z,505.00
2023-05-08T05:20:53.877Z,506.00
2023-05-08T05:21:53.884Z,507.00
2023-05-08T05:22:53.892Z,508.00
2023-05-08T05:23:53.896Z,507.00
2023-05-08T05:24:53.933Z,506.00
2023-05-08T05:25:54.048Z,506.00
2023-05-08T05:26:53.964Z,507.00
2023-05-08T05:27:53.952Z,506.00
2023-05-08T05:28:53.971Z,504.00
2023-05-08T05:29:53.996Z,501.00
2023-05-08T05:30:54.040Z,500.00
2023-05-08T05:31:54.145Z,503.00
2023-05-08T05:32:54.038Z,504.00
2023-05-08T05:33:54.025Z,503.00
2023-05-08T05:34:54.078Z,502.00
2023-05-08T05:35:54.085Z,506.00
2023-05-08T05:36:54.081Z,510.00
2023-05-08T05:37:54.535Z,513.00
2023-05-08T05:38:54.089Z,512.00
2023-05-08T05:39:54.115Z,513.00
2023-05-08T05:40:54.153Z,513.00
2023-05-08T05:41:54.159Z,512.00
2023-05-08T05:42:54.155Z,512.00
2023-05-08T05:43:54.166Z,513.00
2023-05-08T05:44:54.187Z,513.00
2023-05-08T05:45:54.200Z,512.00
2023-05-08T05:46:54.239Z,527.00
2023-05-08T05:47:54.405Z,572.00
2023-05-08T05:48:54.219Z,614.00
2023-05-08T05:49:54.251Z,621.00
2023-05-08T05:50:54.288Z,632.00
2023-05-08T05:51:54.282Z,662.00
2023-05-08T05:52:54.293Z,715.00
2023-05-08T05:53:54.354Z,748.00
2023-05-08T05:54:54.379Z,817.00
2023-05-08T05:55:54.470Z,893.00
2023-05-08T05:56:54.444Z,918.00
2023-05-08T05:57:54.533Z,942.00
2023-05-08T05:58:54.702Z,943.00
2023-05-08T05:59:55.046Z,968.00
2023-05-08T06:00:54.654Z,1050.00
2023-05-08T06:01:54.689Z,831.00
2023-05-08T06:02:55.289Z,712.00
2023-05-08T06:03:54.892Z,733.00
2023-05-08T06:04:54.803Z,732.00
2023-05-08T06:05:55.776Z,746.00
2023-05-08T06:06:54.883Z,893.00
2023-05-08T06:07:55.046Z,945.00
2023-05-08T06:08:54.951Z,956.00
2023-05-08T06:09:55.028Z,959.00
2023-05-08T06:10:55.034Z,972.00
2023-05-08T06:11:55.085Z,988.00
2023-05-08T06:12:55.139Z,1012.00
2023-05-08T06:13:55.188Z,1026.00
2023-05-08T06:14:55.200Z,1036.00
2023-05-08T06:15:55.200Z,1073.00
2023-05-08T06:16:55.284Z,1088.00
2023-05-08T06:17:55.314Z,1095.00
2023-05-08T06:18:55.296Z,1103.00
2023-05-08T06:19:55.304Z,1112.00
2023-05-08T06:20:55.317Z,1125.00
2023-05-08T06:21:55.361Z,1138.00
2023-05-08T06:22:55.575Z,1155.00
2023-05-08T06:23:55.370Z,1168.00
2023-05-08T06:24:55.393Z,1181.00
2023-05-08T06:25:55.401Z,1190.00
2023-05-08T06:26:55.427Z,1211.00
2023-05-08T06:27:55.432Z,1227.00
2023-05-08T06:28:55.467Z,1239.00
2023-05-08T06:29:55.503Z,1248.00
2023-05-08T06:30:55.527Z,1262.00
2023-05-08T06:31:55.529Z,1317.00
2023-05-08T06:32:55.543Z,1313.00
2023-05-08T06:33:55.556Z,1318.00
2023-05-08T06:34:55.562Z,1328.00
2023-05-08T06:35:55.621Z,1339.00
2023-05-08T06:36:55.623Z,1352.00
2023-05-08T06:37:55.685Z,1358.00
2023-05-08T06:38:55.719Z,1372.00
2023-05-08T06:40:10.119Z,1382.00
2023-05-08T06:40:56.743Z,1393.00
2023-05-08T06:41:55.714Z,1405.00
2023-05-08T06:42:56.049Z,1423.00
2023-05-08T06:43:55.721Z,1444.00
2023-05-08T06:44:55.718Z,1460.00
2023-05-08T06:45:55.808Z,1470.00
2023-05-08T06:46:55.807Z,1481.00
2023-05-08T06:47:55.802Z,1486.00
2023-05-08T06:48:55.720Z,1494.00
2023-05-08T06:49:55.666Z,1505.00
2023-05-08T06:50:55.707Z,1520.00
2023-05-08T06:51:57.836Z,1533.00
2023-05-08T06:52:55.744Z,1544.00
2023-05-08T06:53:55.801Z,1560.00
2023-05-08T06:54:55.823Z,1604.00
2023-05-08T06:55:55.827Z,1629.00
2023-05-08T06:56:55.894Z,1650.00
2023-05-08T06:57:56.085Z,1664.00
2023-05-08T06:59:07.090Z,1669.00
2023-05-08T06:59:56.952Z,1719.00
2023-05-08T07:00:55.934Z,1720.00
2023-05-08T07:01:56.107Z,1717.00
2023-05-08T07:02:56.172Z,1732.00
2023-05-08T07:03:55.915Z,1750.00
2023-05-08T07:04:55.966Z,1753.00
2023-05-08T07:05:56.961Z,1759.00
2023-05-08T07:06:55.869Z,1766.00
2023-05-08T07:07:55.860Z,1774.00
2023-05-08T07:08:55.899Z,1787.00
2023-05-08T07:09:55.904Z,1806.00
2023-05-08T07:10:55.857Z,1823.00
2023-05-08T07:11:55.844Z,1835.00
2023-05-08T07:12:55.947Z,1845.00
2023-05-08T07:13:55.838Z,1852.00
2023-05-08T07:14:56.640Z,1858.00
2023-05-08T07:15:55.858Z,1865.00
2023-05-08T07:16:55.823Z,1871.00
2023-05-08T07:17:55.887Z,1876.00
2023-05-08T07:18:55.786Z,1882.00
2023-05-08T07:19:55.789Z,1894.00
2023-05-08T07:20:55.807Z,1907.00
2023-05-08T07:21:55.870Z,1921.00
2023-05-08T07:22:56.090Z,1931.00
2023-05-08T07:23:55.865Z,1940.00
2023-05-08T07:24:55.856Z,1949.00
2023-05-08T07:25:55.887Z,1957.00
2023-05-08T07:26:55.921Z,1970.00
2023-05-08T07:27:55.957Z,1982.00
2023-05-08T07:28:55.977Z,1994.00
2023-05-08T07:29:56.016Z,2008.00
2023-05-08T07:30:56.055Z,2014.00
2023-05-08T07:31:56.083Z,2019.00
2023-05-08T07:32:56.123Z,2029.00
2023-05-08T07:33:56.135Z,2038.00
2023-05-08T07:34:56.133Z,2045.00
2023-05-08T07:35:56.190Z,2054.00
2023-05-08T07:36:56.188Z,2119.00
2023-05-08T07:37:56.185Z,2128.00
2023-05-08T07:38:56.228Z,2131.00
2023-05-08T07:39:56.288Z,2131.00
2023-05-08T07:40:56.300Z,2134.00
2023-05-08T07:41:56.287Z,2142.00
2023-05-08T07:42:56.337Z,2160.00
2023-05-08T07:43:56.330Z,2168.00
2023-05-08T07:44:56.339Z,2172.00
2023-05-08T07:45:56.382Z,2178.00
2023-05-08T07:46:56.408Z,2189.00
2023-05-08T07:47:56.473Z,2217.00
2023-05-08T07:48:56.422Z,2238.00
2023-05-08T07:49:56.430Z,2234.00
2023-05-08T07:50:56.497Z,2180.00
2023-05-08T07:51:56.483Z,2182.00
2023-05-08T07:52:56.495Z,2174.00
2023-05-08T07:53:56.507Z,2170.00
2023-05-08T07:54:56.555Z,2181.00
2023-05-08T07:55:56.580Z,2246.00
2023-05-08T07:56:56.588Z,2263.00
2023-05-08T07:57:56.611Z,2340.00
2023-05-08T07:58:56.608Z,2382.00
2023-05-08T07:59:56.608Z,2399.00
2023-05-08T08:00:56.653Z,2415.00
2023-05-08T08:01:56.726Z,2435.00
2023-05-08T08:02:56.822Z,2461.00
2023-05-08T08:03:56.792Z,2479.00
2023-05-08T08:04:56.718Z,2495.00
2023-05-08T08:05:56.764Z,2509.00
2023-05-08T08:06:56.806Z,2534.00
2023-05-08T08:07:56.837Z,2557.00
2023-05-08T08:08:56.883Z,2573.00
2023-05-08T08:09:57.003Z,2588.00
2023-05-08T08:10:57.007Z,2606.00
2023-05-08T08:11:57.025Z,2645.00
2023-05-08T08:12:57.651Z,2668.00
2023-05-08T08:13:57.137Z,2677.00
2023-05-08T08:14:57.192Z,2684.00
2023-05-08T08:15:57.314Z,2693.00
2023-05-08T08:16:57.356Z,2707.00
2023-05-08T08:17:57.620Z,2728.00
2023-05-08T08:18:57.356Z,2748.00
2023-05-08T08:19:57.459Z,2777.00
2023-05-08T08:20:57.438Z,2800.00
2023-05-08T08:21:57.564Z,2816.00
2023-05-08T08:22:57.594Z,2829.00
2023-05-08T08:23:57.581Z,2844.00
2023-05-08T08:24:57.617Z,2857.00
2023-05-08T08:25:57.603Z,2866.00
2023-05-08T08:26:57.645Z,2878.00
2023-05-08T08:27:57.726Z,2893.00
2023-05-08T08:28:57.773Z,2907.00
2023-05-08T08:30:12.939Z,2929.00
2023-05-08T08:30:58.811Z,2948.00
2023-05-08T08:31:57.805Z,2964.00
2023-05-08T08:32:57.855Z,2974.00
2023-05-08T08:33:57.766Z,2984.00
2023-05-08T08:34:57.785Z,2998.00
2023-05-08T08:35:57.768Z,3015.00
2023-05-08T08:36:57.757Z,3039.00
2023-05-08T08:37:57.848Z,3052.00
2023-05-08T08:38:57.726Z,3067.00
2023-05-08T08:39:57.748Z,3083.00
2023-05-08T08:40:57.718Z,3119.00
2023-05-08T08:41:57.736Z,3122.00
2023-05-08T08:42:57.767Z,3122.00
2023-05-08T08:43:57.817Z,3120.00
2023-05-08T08:44:57.842Z,3122.00
2023-05-08T08:45:57.958Z,3130.00
2023-05-08T08:46:57.922Z,3137.00
2023-05-08T08:47:58.026Z,2673.00
2023-05-08T08:48:57.998Z,2105.00
2023-05-08T08:49:58.058Z,1720.00
2023-05-08T08:50:58.112Z,1891.00
2023-05-08T08:51:58.053Z,2345.00
2023-05-08T08:52:58.108Z,1543.00
2023-05-08T08:53:58.224Z,1668.00
2023-05-08T08:54:58.161Z,1419.00
2023-05-08T08:55:58.234Z,1731.00
2023-05-08T08:56:58.244Z,1746.00
2023-05-08T08:57:58.278Z,1583.00
2023-05-08T08:58:58.324Z,1725.00
2023-05-08T08:59:58.344Z,1567.00
2023-05-08T09:00:58.368Z,1578.00
2023-05-08T09:01:58.443Z,1494.00
2023-05-08T09:02:58.599Z,1444.00
2023-05-08T09:03:58.557Z,1491.00
2023-05-08T09:04:58.455Z,1541.00
2023-05-08T09:05:58.467Z,1574.00
2023-05-08T09:06:58.488Z,1602.00
2023-05-08T09:07:58.498Z,1635.00
2023-05-08T09:08:58.531Z,1664.00
2023-05-08T09:09:58.620Z,1721.00
2023-05-08T09:10:58.569Z,1739.00
2023-05-08T09:11:58.625Z,1763.00
2023-05-08T09:12:58.703Z,1791.00
2023-05-08T09:13:58.742Z,1824.00
2023-05-08T09:14:58.767Z,1882.00
2023-05-08T09:15:58.854Z,1915.00
2023-05-08T09:16:58.852Z,1941.00
2023-05-08T09:17:58.966Z,1965.00
2023-05-08T09:18:58.948Z,1990.00
2023-05-08T09:19:58.963Z,2014.00
2023-05-08T09:20:59.042Z,2035.00
2023-05-08T09:21:59.061Z,2053.00
2023-05-08T09:22:59.148Z,2084.00
2023-05-08T09:23:59.140Z,2110.00
2023-05-08T09:24:59.204Z,2127.00
2023-05-08T09:25:59.318Z,2142.00
2023-05-08T09:26:59.258Z,2160.00
2023-05-08T09:27:59.600Z,2184.00
2023-05-08T09:28:59.335Z,2208.00
2023-05-08T09:29:59.348Z,2231.00
2023-05-08T09:30:59.391Z,2263.00
2023-05-08T09:31:59.494Z,2319.00
2023-05-08T09:32:59.513Z,2327.00
2023-05-08T09:33:59.496Z,2345.00
2023-05-08T09:34:59.513Z,2368.00
2023-05-08T09:35:59.547Z,2392.00
2023-05-08T09:36:59.603Z,2424.00
2023-05-08T09:37:59.621Z,2472.00
2023-05-08T09:38:59.635Z,2478.00
2023-05-08T09:39:59.628Z,2493.00
2023-05-08T09:40:59.667Z,2506.00
2023-05-08T09:41:59.746Z,2530.00
2023-05-08T09:42:59.701Z,2580.00
2023-05-08T09:43:59.756Z,2597.00
2023-05-08T09:44:59.747Z,2658.00
2023-05-08T09:45:59.979Z,2689.00
2023-05-08T09:46:59.811Z,2711.00
2023-05-08T09:48:00.223Z,2732.00
2023-05-08T09:48:59.877Z,2740.00
2023-05-08T09:49:59.908Z,2743.00
2023-05-08T09:50:59.946Z,2736.00
2023-05-08T09:51:59.976Z,2730.00
2023-05-08T09:53:00.007Z,2727.00
2023-05-08T09:54:00.100Z,2727.00
2023-05-08T09:55:00.096Z,2722.00
2023-05-08T09:56:00.131Z,2706.00
2023-05-08T09:57:00.160Z,2688.00
2023-05-08T09:58:00.604Z,2671.00
2023-05-08T09:59:00.264Z,2657.00
2023-05-08T10:00:00.310Z,2647.00
2023-05-08T10:01:00.385Z,2636.00
2023-05-08T10:02:00.396Z,2627.00
2023-05-08T10:03:00.494Z,2618.00
2023-05-08T10:04:00.549Z,2608.00
2023-05-08T10:05:00.576Z,2599.00
2023-05-08T10:06:00.596Z,2593.00
2023-05-08T10:07:00.627Z,2581.00
2023-05-08T10:08:00.727Z,2575.00
2023-05-08T10:09:00.758Z,2569.00
2023-05-08T10:10:00.789Z,2563.00
2023-05-08T10:11:00.838Z,2556.00
2023-05-08T10:12:01.841Z,2543.00
2023-05-08T10:13:00.846Z,2536.00
2023-05-08T10:14:00.895Z,2531.00
2023-05-08T10:15:00.798Z,2523.00
2023-05-08T10:16:00.786Z,2515.00
2023-05-08T10:17:00.900Z,2505.00
2023-05-08T10:18:00.862Z,2500.00
2023-05-08T10:19:00.761Z,2494.00
2023-05-08T10:20:00.751Z,2488.00
2023-05-08T10:21:00.769Z,2483.00
2023-05-08T10:22:00.750Z,2477.00
2023-05-08T10:23:00.778Z,2466.00
2023-05-08T10:24:00.723Z,2454.00
2023-05-08T10:25:00.766Z,2449.00
2023-05-08T10:26:00.741Z,2446.00
2023-05-08T10:27:06.148Z,2434.00
2023-05-08T10:28:01.729Z,2428.00
2023-05-08T10:29:00.689Z,2422.00
2023-05-08T10:30:00.798Z,2412.00
2023-05-08T10:31:00.796Z,2405.00
2023-05-08T10:32:00.697Z,2400.00
2023-05-08T10:33:00.695Z,2395.00
2023-05-08T10:34:00.709Z,2388.00
2023-05-08T10:35:00.649Z,2377.00
2023-05-08T10:36:00.652Z,2372.00
2023-05-08T10:37:00.651Z,2365.00
2023-05-08T10:38:01.167Z,2355.00
2023-05-08T10:39:00.634Z,2344.00
2023-05-08T10:40:00.669Z,2337.00
2023-05-08T10:41:00.598Z,2328.00
2023-05-08T10:42:00.627Z,2323.00
2023-05-08T10:43:00.612Z,2315.00
2023-05-08T10:44:02.551Z,2110.00
2023-05-08T10:45:00.598Z,1927.00
2023-05-08T10:46:00.708Z,1997.00
2023-05-08T10:47:00.566Z,2054.00
2023-05-08T10:48:00.696Z,2031.00
2023-05-08T10:49:00.587Z,2024.00
2023-05-08T10:50:00.596Z,2022.00
2023-05-08T10:51:00.557Z,2038.00
2023-05-08T10:52:00.584Z,2063.00
2023-05-08T10:53:00.545Z,2093.00
2023-05-08T10:54:00.533Z,2134.00
2023-05-08T10:55:00.529Z,2163.00
2023-05-08T10:56:00.496Z,2184.00
2023-05-08T10:57:00.508Z,2202.00
2023-05-08T10:58:00.524Z,2212.00
2023-05-08T10:59:00.540Z,2222.00
2023-05-08T11:00:00.514Z,2247.00
2023-05-08T11:01:00.484Z,2277.00
2023-05-08T11:02:00.627Z,2297.00
2023-05-08T11:03:00.499Z,2307.00
2023-05-08T11:04:00.790Z,2321.00
2023-05-08T11:05:00.471Z,2335.00
2023-05-08T11:06:00.417Z,2357.00
2023-05-08T11:07:00.468Z,2372.00
2023-05-08T11:08:00.427Z,2380.00
2023-05-08T11:09:01.052Z,2384.00
2023-05-08T11:10:00.483Z,2386.00
2023-05-08T11:11:00.417Z,2390.00
2023-05-08T11:12:00.407Z,2395.00
2023-05-08T11:13:00.465Z,2405.00
2023-05-08T11:14:00.663Z,2412.00
2023-05-08T11:15:00.399Z,2424.00
2023-05-08T11:16:00.442Z,2434.00
2023-05-08T11:17:00.342Z,2451.00
2023-05-08T11:18:00.388Z,2461.00
2023-05-08T11:19:00.355Z,2475.00
2023-05-08T11:20:00.321Z,2486.00
2023-05-08T11:21:00.327Z,2493.00
2023-05-08T11:22:00.338Z,2505.00
2023-05-08T11:23:00.324Z,2521.00
2023-05-08T11:24:00.673Z,2536.00
2023-05-08T11:25:00.313Z,2541.00
2023-05-08T11:26:00.304Z,2549.00
2023-05-08T11:27:00.265Z,2556.00
2023-05-08T11:28:00.282Z,2564.00
2023-05-08T11:29:00.669Z,2573.00
2023-05-08T11:30:00.258Z,2584.00
2023-05-08T11:31:00.275Z,2600.00
2023-05-08T11:32:00.330Z,2613.00
2023-05-08T11:33:00.266Z,2624.00
2023-05-08T11:34:00.635Z,2609.00
2023-05-08T11:35:00.244Z,2609.00
2023-05-08T11:36:00.242Z,2609.00
2023-05-08T11:37:00.201Z,2609.00
2023-05-08T11:38:00.228Z,2604.00
2023-05-08T11:39:00.691Z,2535.00
2023-05-08T11:40:00.241Z,2499.00
2023-05-08T11:41:00.317Z,2491.00
2023-05-08T11:42:00.325Z,2475.00
2023-05-08T11:43:00.426Z,2465.00
2023-05-08T11:44:00.467Z,2455.00
2023-05-08T11:45:00.502Z,2437.00
2023-05-08T11:46:00.561Z,2424.00
2023-05-08T11:47:00.598Z,2423.00
2023-05-08T11:48:00.674Z,2419.00
2023-05-08T11:49:00.715Z,2417.00
2023-05-08T11:50:00.730Z,2417.00
2023-05-08T11:51:00.748Z,2415.00
2023-05-08T11:52:00.792Z,2420.00
2023-05-08T11:53:00.779Z,2419.00
2023-05-08T11:54:00.802Z,2418.00
2023-05-08T11:55:00.825Z,2416.00
2023-05-08T11:56:00.830Z,2410.00
2023-05-08T11:57:00.820Z,2403.00
2023-05-08T11:58:00.838Z,2401.00
2023-05-08T11:59:00.867Z,2395.00
2023-05-08T12:00:00.862Z,2390.00
2023-05-08T12:01:00.932Z,2380.00
2023-05-08T12:02:08.428Z,2370.00
2023-05-08T12:03:02.145Z,2364.00
2023-05-08T12:04:00.976Z,2362.00
2023-05-08T12:05:00.911Z,2359.00
2023-05-08T12:06:00.858Z,2356.00
2023-05-08T12:07:00.877Z,2348.00
2023-05-08T12:08:00.838Z,2342.00
2023-05-08T12:09:00.864Z,2334.00
2023-05-08T12:10:00.832Z,2322.00
2023-05-08T12:11:00.831Z,2313.00
2023-05-08T12:12:00.811Z,2303.00
2023-05-08T12:13:00.815Z,2295.00
2023-05-08T12:14:00.816Z,2295.00
2023-05-08T12:15:00.800Z,2293.00
2023-05-08T12:16:00.805Z,2290.00
2023-05-08T12:17:00.807Z,2288.00
2023-05-08T12:18:00.922Z,2284.00